createdAt,value
2017-12-05T00:01:36.176Z,98480.19
2017-12-05T00:04:04.109Z,98477.61
2017-12-05T00:06:32.511Z,98486.91
2017-12-05T00:09:01.030Z,98490.73
2017-12-05T00:11:28.688Z,98491.48
2017-12-05T00:13:56.353Z,98494.42
2017-12-05T00:16:24.078Z,98497.38
2017-12-05T00:18:53.483Z,98495.77
2017-12-05T00:21:21.208Z,98500.84
2017-12-05T00:23:48.892Z,98505.95
2017-12-05T00:26:16.683Z,98499.31
2017-12-05T00:28:44.369Z,98507.45
2017-12-05T00:31:12.386Z,98502.45
2017-12-05T00:33:40.072Z,98505.05
2017-12-05T00:36:07.910Z,98502.10
2017-12-05T00:38:37.058Z,98500.03
2017-12-05T00:41:05.016Z,98505.55
2017-12-05T00:43:33.751Z,98511.12
2017-12-05T00:46:01.650Z,98511.22
2017-12-05T00:48:29.388Z,98517.08
2017-12-05T00:50:57.322Z,98517.01
2017-12-05T00:53:25.834Z,98512.78
2017-12-05T00:55:57.431Z,98520.39
2017-12-05T00:58:25.148Z,98528.38
2017-12-05T01:00:53.040Z,98531.48
2017-12-05T01:03:22.364Z,98533.55
2017-12-05T01:05:50.078Z,98531.13
2017-12-05T01:08:17.754Z,98531.20
2017-12-05T01:10:47.106Z,98533.64
2017-12-05T01:13:14.830Z,98540.72
2017-12-05T01:15:42.482Z,98534.52
2017-12-05T01:18:10.148Z,98540.00
2017-12-05T01:20:39.629Z,98537.47
2017-12-05T01:23:09.749Z,98537.02
2017-12-05T01:25:37.434Z,98539.97
2017-12-05T01:28:05.132Z,98539.09
2017-12-05T01:30:33.969Z,98550.09
2017-12-05T01:33:01.750Z,98536.98
2017-12-05T01:35:29.404Z,98559.83
2017-12-05T01:37:57.528Z,98557.73
2017-12-05T01:40:27.087Z,98558.67
2017-12-05T01:42:54.771Z,98561.62
2017-12-05T01:45:22.493Z,98569.52
2017-12-05T01:47:50.315Z,98565.69
2017-12-05T01:50:17.983Z,98560.73
2017-12-05T01:52:45.647Z,98562.09
2017-12-05T01:55:14.482Z,98564.12
2017-12-05T01:57:42.109Z,98561.27
2017-12-05T02:00:09.770Z,98560.83
2017-12-05T02:02:38.250Z,98562.15
2017-12-05T02:05:05.947Z,98556.26
2017-12-05T02:07:33.599Z,98550.44
2017-12-05T02:10:01.297Z,98556.70
2017-12-05T02:12:29.000Z,98555.48
2017-12-05T02:14:56.667Z,98560.93
2017-12-05T02:17:24.351Z,98551.25
2017-12-05T02:19:54.620Z,98556.70
2017-12-05T02:22:22.310Z,98557.58
2017-12-05T02:24:49.962Z,98555.48
2017-12-05T02:27:17.601Z,98565.09
2017-12-05T02:29:45.329Z,98556.80
2017-12-05T02:32:12.996Z,98555.16
2017-12-05T02:34:40.668Z,98560.27
2017-12-05T02:37:08.379Z,98557.33
2017-12-05T02:39:36.123Z,98564.41
2017-12-05T02:42:03.812Z,98563.13
2017-12-05T02:44:31.472Z,98568.95
2017-12-05T02:46:59.180Z,98565.56
2017-12-05T02:49:26.815Z,98561.02
2017-12-05T02:51:54.512Z,98566.98
2017-12-05T02:54:22.160Z,98554.03
2017-12-05T02:56:49.803Z,98561.99
2017-12-05T02:59:17.510Z,98569.86
2017-12-05T03:01:45.376Z,98570.73
2017-12-05T03:04:13.173Z,98573.70
2017-12-05T03:06:42.447Z,98573.24
2017-12-05T03:09:10.261Z,98573.15
2017-12-05T03:11:37.943Z,98578.16
2017-12-05T03:14:05.608Z,98568.79
2017-12-05T03:16:33.993Z,98571.73
2017-12-05T03:19:01.663Z,98567.63
2017-12-05T03:21:29.339Z,98570.95
2017-12-05T03:23:58.833Z,98569.70
2017-12-05T03:26:26.651Z,98576.31
2017-12-05T03:28:54.319Z,98578.88
2017-12-05T03:31:22.340Z,98579.25
2017-12-05T03:33:50.019Z,98581.85
2017-12-05T03:36:17.660Z,98584.36
2017-12-05T03:38:46.091Z,98583.58
2017-12-05T03:41:13.735Z,98580.60
2017-12-05T03:43:41.563Z,98579.79
2017-12-05T03:46:09.224Z,98580.60
2017-12-05T03:48:36.911Z,98585.14
2017-12-05T03:51:05.065Z,98587.77
2017-12-05T03:53:32.783Z,98593.51
2017-12-05T03:56:01.151Z,98591.81
2017-12-05T03:58:30.621Z,98595.17
2017-12-05T04:00:59.083Z,98593.03
2017-12-05T04:03:26.805Z,98592.16
2017-12-05T04:05:56.361Z,98593.06
2017-12-05T04:08:26.726Z,98589.38
2017-12-05T04:10:56.978Z,98593.57
2017-12-05T04:13:24.727Z,98598.08
2017-12-05T04:15:53.208Z,98595.17
2017-12-05T04:18:21.175Z,98596.02
2017-12-05T04:20:48.903Z,98593.57
2017-12-05T04:23:16.613Z,98590.69
2017-12-05T04:25:44.367Z,98590.78
2017-12-05T04:28:12.084Z,98586.59
2017-12-05T04:30:39.802Z,98591.63
2017-12-05T04:33:07.459Z,98595.80
2017-12-05T04:35:37.007Z,98587.94
2017-12-05T04:38:04.720Z,98591.31
2017-12-05T04:40:34.227Z,98595.89
2017-12-05T04:43:04.543Z,98598.74
2017-12-05T04:45:33.076Z,98600.91
2017-12-05T04:48:00.738Z,98608.05
2017-12-05T04:50:28.421Z,98607.11
2017-12-05T04:52:56.127Z,98611.68
2017-12-05T04:55:26.400Z,98599.49
2017-12-05T04:57:55.968Z,98594.45
2017-12-05T05:00:23.668Z,98593.13
2017-12-05T05:02:51.504Z,98591.81
2017-12-05T05:05:19.174Z,98595.58
2017-12-05T05:07:48.552Z,98604.31
2017-12-05T05:10:16.317Z,98604.53
2017-12-05T05:12:43.994Z,98605.41
2017-12-05T05:15:12.500Z,98606.59
2017-12-05T05:17:41.132Z,98612.17
2017-12-05T05:20:08.834Z,98616.34
2017-12-05T05:22:36.865Z,98616.78
2017-12-05T05:25:04.724Z,98611.30
2017-12-05T05:27:34.006Z,98613.80
2017-12-05T05:30:01.738Z,98618.38
2017-12-05T05:32:29.473Z,98616.31
2017-12-05T05:34:57.119Z,98614.55
2017-12-05T05:37:24.798Z,98613.71
2017-12-05T05:39:53.286Z,98617.84
2017-12-05T05:42:21.042Z,98608.20
2017-12-05T05:44:48.800Z,98613.98
2017-12-05T05:47:16.471Z,98611.77
2017-12-05T05:49:44.261Z,98615.55
2017-12-05T05:52:12.332Z,98611.41
2017-12-05T05:54:40.068Z,98619.31
2017-12-05T05:57:08.050Z,98618.05
2017-12-05T05:59:36.531Z,98624.73
2017-12-05T06:02:04.332Z,98621.34
2017-12-05T06:04:32.029Z,98693.58
2017-12-05T06:06:59.716Z,98635.06
2017-12-05T06:09:27.372Z,98632.46
2017-12-05T06:11:55.640Z,98630.30
2017-12-05T06:14:23.306Z,98635.31
2017-12-05T06:16:52.724Z,98633.05
2017-12-05T06:19:20.528Z,98622.05
2017-12-05T06:21:48.354Z,98629.66
2017-12-05T06:24:16.440Z,98635.42
2017-12-05T06:26:44.146Z,98637.92
2017-12-05T06:29:12.895Z,98639.25
2017-12-05T06:31:40.624Z,98640.44
2017-12-05T06:34:08.569Z,98653.50
2017-12-05T06:36:36.256Z,98647.20
2017-12-05T06:39:03.930Z,98653.19
2017-12-05T06:41:31.582Z,98650.69
2017-12-05T06:43:59.323Z,98662.67
2017-12-05T06:46:27.780Z,98661.14
2017-12-05T06:48:55.430Z,98668.23
2017-12-05T06:51:23.143Z,98663.25
2017-12-05T06:53:50.845Z,98667.98
2017-12-05T06:56:18.502Z,98676.72
2017-12-05T06:58:46.173Z,98674.62
2017-12-05T07:01:13.800Z,98679.16
2017-12-05T07:03:41.460Z,98682.45
2017-12-05T07:06:10.844Z,98683.36
2017-12-05T07:08:40.498Z,98689.12
2017-12-05T07:11:08.178Z,98684.45
2017-12-05T07:13:35.936Z,98691.22
2017-12-05T07:16:05.227Z,98698.30
2017-12-05T07:18:35.802Z,98697.14
2017-12-05T07:21:05.356Z,98701.78
2017-12-05T07:23:35.644Z,98693.48
2017-12-05T07:26:03.322Z,98701.97
2017-12-05T07:28:31.056Z,98701.19
2017-12-05T07:30:59.562Z,98708.95
2017-12-05T07:33:27.238Z,98702.72
2017-12-05T07:35:54.900Z,98701.53
2017-12-05T07:38:22.570Z,98707.08
2017-12-05T07:40:51.007Z,98712.63
2017-12-05T07:43:21.604Z,98716.39
2017-12-05T07:45:49.276Z,98724.01
2017-12-05T07:48:16.951Z,98716.18
2017-12-05T07:50:47.179Z,98716.10
2017-12-05T07:53:14.814Z,98717.39
2017-12-05T07:55:42.493Z,98710.84
2017-12-05T07:58:11.192Z,98713.14
2017-12-05T08:00:38.926Z,98714.59
2017-12-05T08:03:07.544Z,98719.23
2017-12-05T08:05:35.304Z,98718.16
2017-12-05T08:08:03.102Z,98725.22
2017-12-05T08:10:30.874Z,98730.86
2017-12-05T08:13:00.437Z,98730.86
2017-12-05T08:15:28.153Z,98726.83
2017-12-05T08:17:55.790Z,98737.42
2017-12-05T08:20:25.247Z,98738.77
2017-12-05T08:22:52.946Z,98735.83
2017-12-05T08:25:20.994Z,98739.63
2017-12-05T08:27:49.421Z,98735.25
2017-12-05T08:30:19.853Z,98736.77
2017-12-05T08:32:48.464Z,98736.23
2017-12-05T08:35:17.797Z,98739.56
2017-12-05T08:37:45.505Z,98742.51
2017-12-05T08:40:14.958Z,98742.39
2017-12-05T08:42:45.370Z,98745.53
2017-12-05T08:45:13.107Z,98743.83
2017-12-05T08:47:40.955Z,98739.80
2017-12-05T08:50:10.430Z,98741.15
2017-12-05T08:52:38.903Z,98741.22
2017-12-05T08:55:06.557Z,98749.75
2017-12-05T08:57:35.997Z,98748.66
2017-12-05T09:00:05.401Z,98751.42
2017-12-05T09:02:33.941Z,98754.74
2017-12-05T09:05:03.417Z,98754.84
2017-12-05T09:07:31.152Z,98752.95
2017-12-05T09:10:00.819Z,98753.42
2017-12-05T09:12:29.607Z,98748.38
2017-12-05T09:15:00.059Z,98751.55
2017-12-05T09:17:27.699Z,98754.14
2017-12-05T09:19:56.077Z,98749.82
2017-12-05T09:22:25.479Z,98759.91
2017-12-05T09:24:53.203Z,98762.37
2017-12-05T09:27:20.904Z,98771.16
2017-12-05T09:29:51.249Z,98776.11
2017-12-05T09:32:19.238Z,98778.27
2017-12-05T09:34:46.931Z,98772.53
2017-12-05T09:37:15.721Z,98767.20
2017-12-05T09:39:43.381Z,98778.52
2017-12-05T09:42:11.030Z,98772.16
2017-12-05T09:44:40.277Z,98770.27
2017-12-05T09:47:09.672Z,98764.06
2017-12-05T09:49:37.470Z,98768.83
2017-12-05T09:52:05.098Z,98770.69
2017-12-05T09:54:34.580Z,98772.16
2017-12-05T09:57:02.326Z,98766.64
2017-12-05T09:59:30.800Z,98764.84
2017-12-05T10:02:00.241Z,98766.48
2017-12-05T10:04:27.940Z,98754.36
2017-12-05T10:06:57.225Z,98755.43
2017-12-05T10:09:24.904Z,98747.45
2017-12-05T10:11:54.278Z,98749.16
2017-12-05T10:14:21.982Z,98744.76
2017-12-05T10:16:49.615Z,98745.70
2017-12-05T10:19:17.410Z,98741.73
2017-12-05T10:21:48.343Z,98743.91
2017-12-05T10:24:16.039Z,98738.26
2017-12-05T10:26:44.413Z,98740.38
2017-12-05T10:29:14.686Z,98740.09
2017-12-05T10:31:42.404Z,98734.79
2017-12-05T10:34:10.193Z,98736.47
2017-12-05T10:36:37.861Z,98737.97
2017-12-05T10:39:05.557Z,98736.61
2017-12-05T10:41:34.990Z,98733.09
2017-12-05T10:44:02.789Z,98730.00
2017-12-05T10:46:30.448Z,98726.34
2017-12-05T10:48:58.907Z,98727.75
2017-12-05T10:51:31.846Z,98722.69
2017-12-05T10:54:01.290Z,98721.08
2017-12-05T10:56:29.016Z,98713.86
2017-12-05T10:58:59.277Z,98719.72
2017-12-05T11:01:27.221Z,98725.63
2017-12-05T11:03:54.896Z,98720.60
2017-12-05T11:06:22.569Z,98725.22
2017-12-05T11:08:50.308Z,98722.82
2017-12-05T11:11:18.058Z,98722.82
2017-12-05T11:13:45.755Z,98719.46
2017-12-05T11:16:13.453Z,98724.22
2017-12-05T11:18:43.050Z,98715.98
2017-12-05T11:21:10.739Z,98721.42
2017-12-05T11:23:38.381Z,98723.88
2017-12-05T11:26:06.071Z,98718.70
2017-12-05T11:28:35.541Z,98716.71
2017-12-05T11:31:04.004Z,98718.05
2017-12-05T11:33:32.500Z,98714.22
2017-12-05T11:36:00.915Z,98713.34
2017-12-05T11:38:30.903Z,98717.77
2017-12-05T11:40:59.503Z,98714.91
2017-12-05T11:43:28.792Z,98711.28
2017-12-05T11:45:56.497Z,98717.89
2017-12-05T11:48:25.784Z,98708.70
2017-12-05T11:50:55.342Z,98708.80
2017-12-05T11:53:23.108Z,98704.81
2017-12-05T11:55:50.806Z,98708.81
2017-12-05T11:58:21.136Z,98713.22
2017-12-05T12:00:48.968Z,98704.20
2017-12-05T12:03:19.241Z,98707.83
2017-12-05T12:05:46.947Z,98703.49
2017-12-05T12:08:15.614Z,98713.19
2017-12-05T12:10:43.311Z,98707.07
2017-12-05T12:13:10.996Z,98716.45
2017-12-05T12:15:40.464Z,98712.52
2017-12-05T12:18:10.030Z,98711.42
2017-12-05T12:20:37.766Z,98703.58
2017-12-05T12:23:05.546Z,98706.55
2017-12-05T12:25:34.035Z,98708.91
2017-12-05T12:28:01.905Z,98702.25
2017-12-05T12:30:29.570Z,98703.72
2017-12-05T12:32:57.988Z,98703.08
2017-12-05T12:35:27.393Z,98699.44
2017-12-05T12:37:55.071Z,98702.31
2017-12-05T12:40:25.381Z,98700.15
2017-12-05T12:42:55.756Z,98708.45
2017-12-05T12:45:23.448Z,98709.34
2017-12-05T12:47:52.915Z,98710.83
2017-12-05T12:50:22.410Z,98701.67
2017-12-05T12:52:51.914Z,98708.64
2017-12-05T12:55:19.639Z,98701.45
2017-12-05T12:57:47.312Z,98704.46
2017-12-05T13:00:16.789Z,98697.67
2017-12-05T13:02:44.480Z,98691.73
2017-12-05T13:05:12.249Z,98691.91
2017-12-05T13:07:39.907Z,98694.20
2017-12-05T13:10:10.247Z,98697.90
2017-12-05T13:12:40.709Z,98693.98
2017-12-05T13:15:08.455Z,98688.92
2017-12-05T13:17:37.745Z,98691.44
2017-12-05T13:20:09.230Z,98691.03
2017-12-05T13:22:36.900Z,98686.95
2017-12-05T13:25:07.591Z,98683.36
2017-12-05T13:27:36.102Z,98685.67
2017-12-05T13:30:03.773Z,98685.81
2017-12-05T13:32:31.610Z,98682.78
2017-12-05T13:35:00.132Z,98682.34
2017-12-05T13:37:28.580Z,98678.48
2017-12-05T13:39:58.057Z,98691.77
2017-12-05T13:42:26.468Z,98670.70
2017-12-05T13:44:54.220Z,98671.67
2017-12-05T13:47:24.494Z,98665.97
2017-12-05T13:49:52.937Z,98678.33
2017-12-05T13:52:22.322Z,98676.78
2017-12-05T13:54:50.102Z,98674.27
2017-12-05T13:57:18.524Z,98674.77
2017-12-05T13:59:46.233Z,98683.37
2017-12-05T14:02:16.067Z,98675.00
2017-12-05T14:04:45.539Z,98681.19
2017-12-05T14:07:14.021Z,98685.20
2017-12-05T14:09:41.753Z,98683.47
2017-12-05T14:12:09.432Z,98684.29
2017-12-05T14:14:37.145Z,98682.62
2017-12-05T14:17:07.551Z,98682.75
2017-12-05T14:19:37.885Z,98684.73
2017-12-05T14:22:09.697Z,98680.36
2017-12-05T14:24:39.051Z,98683.23
2017-12-05T14:27:06.946Z,98692.77
2017-12-05T14:29:38.194Z,98688.27
2017-12-05T14:32:07.490Z,98685.52
2017-12-05T14:34:36.919Z,98684.23
2017-12-05T14:37:08.554Z,98691.02
2017-12-05T14:39:36.261Z,98688.30
2017-12-05T14:42:03.938Z,98690.05
2017-12-05T14:44:32.386Z,98696.98
2017-12-05T14:47:02.382Z,98685.08
2017-12-05T14:49:30.264Z,98689.05
2017-12-05T14:52:00.992Z,98693.05
2017-12-05T14:54:28.952Z,98687.30
2017-12-05T14:56:56.646Z,98691.80
2017-12-05T14:59:28.649Z,98701.31
2017-12-05T15:01:59.128Z,98692.05
2017-12-05T15:04:27.011Z,98693.22
2017-12-05T15:06:54.737Z,98692.84
2017-12-05T15:09:22.434Z,98700.27
2017-12-05T15:11:52.792Z,98702.74
2017-12-05T15:14:22.200Z,98696.38
2017-12-05T15:16:51.520Z,98693.52
2017-12-05T15:19:19.256Z,98698.89
2017-12-05T15:21:47.124Z,98700.52
2017-12-05T15:24:15.335Z,98702.16
2017-12-05T15:26:43.403Z,98703.79
2017-12-05T15:29:11.192Z,98706.73
2017-12-05T15:31:42.740Z,98706.30
2017-12-05T15:34:10.686Z,98703.26
2017-12-05T15:36:41.181Z,98700.66
2017-12-05T15:39:08.977Z,98707.34
2017-12-05T15:41:36.643Z,98705.59
2017-12-05T15:44:05.161Z,98705.16
2017-12-05T15:46:33.593Z,98706.37
2017-12-05T15:49:01.436Z,98710.14
2017-12-05T15:51:29.166Z,98712.22
2017-12-05T15:53:57.032Z,98707.92
2017-12-05T15:56:24.693Z,98710.44
2017-12-05T15:58:54.162Z,98705.41
2017-12-05T16:01:23.773Z,98709.12
2017-12-05T16:03:53.515Z,98721.23
2017-12-05T16:06:21.212Z,98724.09
2017-12-05T16:08:51.623Z,98724.82
2017-12-05T16:11:20.091Z,98720.67
2017-12-05T16:13:47.786Z,98721.94
2017-12-05T16:16:15.449Z,98720.62
2017-12-05T16:18:43.158Z,98720.09
2017-12-05T16:21:11.662Z,98720.91
2017-12-05T16:23:41.054Z,98714.63
2017-12-05T16:26:11.401Z,98718.30
2017-12-05T16:28:40.008Z,98730.05
2017-12-05T16:31:09.944Z,98728.72
2017-12-05T16:33:37.623Z,98729.98
2017-12-05T16:36:07.071Z,98733.88
2017-12-05T16:38:36.077Z,98725.90
2017-12-05T16:41:03.801Z,98732.55
2017-12-05T16:43:33.125Z,98726.12
2017-12-05T16:46:00.988Z,98721.09
2017-12-05T16:48:29.772Z,98712.59
2017-12-05T16:51:00.031Z,98713.47
2017-12-05T16:53:27.736Z,98712.06
2017-12-05T16:55:57.137Z,98711.75
2017-12-05T16:58:25.143Z,98719.28
2017-12-05T17:00:52.858Z,98721.80
2017-12-05T17:03:22.190Z,98724.74
2017-12-05T17:05:49.899Z,98727.28
2017-12-05T17:08:19.463Z,98715.98
2017-12-05T17:10:48.921Z,98718.88
2017-12-05T17:13:19.352Z,98714.64
2017-12-05T17:15:47.129Z,98713.29
2017-12-05T17:18:16.774Z,98719.06
2017-12-05T17:20:46.353Z,98715.27
2017-12-05T17:23:14.052Z,98714.84
2017-12-05T17:25:45.596Z,98716.44
2017-12-05T17:28:13.322Z,98716.38
2017-12-05T17:30:41.207Z,98720.14
2017-12-05T17:33:08.932Z,98712.58
2017-12-05T17:35:36.718Z,98710.80
2017-12-05T17:38:06.238Z,98719.67
2017-12-05T17:40:36.578Z,98719.98
2017-12-05T17:43:04.469Z,98728.31
2017-12-05T17:45:33.797Z,98730.00
2017-12-05T17:48:01.970Z,98737.03
2017-12-05T17:50:32.829Z,98734.96
2017-12-05T17:53:01.065Z,98732.86
2017-12-05T17:55:29.713Z,98739.80
2017-12-05T17:57:58.272Z,98736.03
2017-12-05T18:00:28.812Z,98725.08
2017-12-05T18:02:59.187Z,98735.87
2017-12-05T18:05:28.552Z,98739.70
2017-12-05T18:07:57.783Z,98739.70
2017-12-05T18:10:27.623Z,98739.84
2017-12-05T18:12:57.073Z,98737.10
2017-12-05T18:15:25.921Z,98739.92
2017-12-05T18:17:55.508Z,98740.42
2017-12-05T18:20:26.158Z,98735.69
2017-12-05T18:22:54.423Z,98742.34
2017-12-05T18:25:23.050Z,98736.45
2017-12-05T18:27:51.593Z,98746.08
2017-12-05T18:30:19.393Z,98744.77
2017-12-05T18:32:48.949Z,98742.19
2017-12-05T18:35:16.825Z,98743.44
2017-12-05T18:37:46.146Z,98747.62
2017-12-05T18:40:15.095Z,98744.67
2017-12-05T18:42:43.022Z,98742.09
2017-12-05T18:45:12.733Z,98747.53
2017-12-05T18:47:43.929Z,98744.23
2017-12-05T18:50:11.959Z,98748.38
2017-12-05T18:52:41.440Z,98746.30
2017-12-05T18:55:11.049Z,98738.33
2017-12-05T18:57:39.543Z,98738.77
2017-12-05T19:00:11.383Z,98730.80
2017-12-05T19:02:39.380Z,98730.42
2017-12-05T19:05:08.389Z,98733.75
2017-12-05T19:07:36.386Z,98728.73
2017-12-05T19:10:04.238Z,98728.73
2017-12-05T19:12:32.196Z,98725.69
2017-12-05T19:15:00.805Z,98724.94
2017-12-05T19:17:30.390Z,98724.94
2017-12-05T19:19:58.290Z,98714.02
2017-12-05T19:22:28.716Z,98706.92
2017-12-05T19:24:57.280Z,98710.19
2017-12-05T19:27:25.176Z,98701.09
2017-12-05T19:29:53.137Z,98705.26
2017-12-05T19:32:22.898Z,98701.11
2017-12-05T19:34:52.891Z,98700.30
2017-12-05T19:37:20.846Z,98694.84
2017-12-05T19:39:50.397Z,98701.27
2017-12-05T19:42:18.591Z,98696.19
2017-12-05T19:44:46.583Z,98699.92
2017-12-05T19:47:16.181Z,98707.02
2017-12-05T19:49:44.977Z,98703.19
2017-12-05T19:52:15.826Z,98705.23
2017-12-05T19:54:43.596Z,98700.23
2017-12-05T19:57:12.249Z,98701.55
2017-12-05T19:59:41.477Z,98703.28
2017-12-05T20:02:09.364Z,98701.55
2017-12-05T20:04:37.232Z,98705.41
2017-12-05T20:07:05.066Z,98702.88
2017-12-05T20:09:32.894Z,98704.97
2017-12-05T20:12:01.958Z,98698.17
2017-12-05T20:14:29.805Z,98698.14
2017-12-05T20:16:57.596Z,98698.58
2017-12-05T20:19:25.380Z,98699.83
2017-12-05T20:21:53.187Z,98703.16
2017-12-05T20:24:20.919Z,98703.19
2017-12-05T20:26:48.806Z,98704.85
2017-12-05T20:29:16.653Z,98705.26
2017-12-05T20:31:44.437Z,98702.66
2017-12-05T20:34:12.266Z,98703.09
2017-12-05T20:36:39.990Z,98702.66
2017-12-05T20:39:08.700Z,98703.16
2017-12-05T20:41:36.485Z,98693.41
2017-12-05T20:44:04.621Z,98698.52
2017-12-05T20:56:18.158Z,98695.03
2017-12-05T20:58:46.100Z,98697.92
2017-12-05T21:01:13.938Z,98690.36
2017-12-05T21:03:41.823Z,98687.85
2017-12-05T21:06:09.569Z,98686.16
2017-12-05T21:08:37.977Z,98692.43
2017-12-05T21:11:06.490Z,98689.05
2017-12-05T21:13:34.755Z,98694.06
2017-12-05T21:16:02.529Z,98689.77
2017-12-05T21:18:30.295Z,98691.90
2017-12-05T21:20:58.096Z,98696.13
2017-12-05T21:23:26.895Z,98697.89
2017-12-05T21:25:54.706Z,98701.16
2017-12-05T21:28:22.439Z,98692.88
2017-12-05T21:30:50.192Z,98694.50
2017-12-05T21:33:17.903Z,98705.08
2017-12-05T21:35:46.219Z,98701.69
2017-12-05T21:38:14.741Z,98705.86
2017-12-05T21:40:42.448Z,98709.66
2017-12-05T21:43:10.153Z,98706.17
2017-12-05T21:45:37.784Z,98704.17
2017-12-05T21:48:05.411Z,98694.06
2017-12-05T21:50:33.123Z,98695.69
2017-12-05T21:53:00.762Z,98707.93
2017-12-05T21:55:28.452Z,98706.58
2017-12-05T21:57:56.105Z,98702.69
2017-12-05T22:00:25.730Z,98701.41
2017-12-05T22:02:53.378Z,98700.81
2017-12-05T22:05:21.019Z,98707.34
2017-12-05T22:07:48.654Z,98700.34
2017-12-05T22:10:16.301Z,98698.19
2017-12-05T22:12:43.923Z,98702.26
2017-12-05T22:15:11.682Z,98697.96
2017-12-05T22:17:39.295Z,98699.63
2017-12-05T22:20:06.958Z,98701.64
2017-12-05T22:22:34.618Z,98707.34
2017-12-05T22:25:02.237Z,98714.81
2017-12-05T22:27:30.245Z,98712.21
2017-12-05T22:29:57.887Z,98714.19
2017-12-05T22:32:25.534Z,98712.11
2017-12-05T22:34:53.164Z,98717.89
2017-12-05T22:37:20.801Z,98714.41
2017-12-05T22:39:48.409Z,98710.52
2017-12-05T22:42:16.032Z,98706.25
2017-12-05T22:44:43.644Z,98704.84
2017-12-05T22:47:11.244Z,98700.16
2017-12-05T22:49:38.819Z,98696.41
2017-12-05T22:52:06.484Z,98700.95
2017-12-05T22:54:34.974Z,98699.63
2017-12-05T22:57:02.599Z,98692.45
2017-12-05T22:59:30.164Z,98701.17
2017-12-05T23:01:57.758Z,98701.08
2017-12-05T23:04:25.343Z,98691.83
2017-12-05T23:06:52.951Z,98700.98
2017-12-05T23:09:20.563Z,98699.28
2017-12-05T23:11:48.267Z,98693.80
2017-12-05T23:14:15.880Z,98689.53
2017-12-05T23:16:43.629Z,98689.44
2017-12-05T23:19:11.248Z,98684.70
2017-12-05T23:21:38.881Z,98687.72
2017-12-05T23:24:06.469Z,98685.93
2017-12-05T23:26:34.033Z,98687.59
2017-12-05T23:29:01.627Z,98689.97
2017-12-05T23:31:29.214Z,98685.77
2017-12-05T23:33:56.823Z,98694.39
2017-12-05T23:36:24.423Z,98692.77
2017-12-05T23:38:52.193Z,98691.51
2017-12-05T23:41:19.828Z,98691.13
2017-12-05T23:43:47.488Z,98696.45
2017-12-05T23:46:15.105Z,98693.52
2017-12-05T23:48:42.755Z,98693.95
2017-12-05T23:51:10.337Z,98691.34
2017-12-05T23:53:38.033Z,98693.42
2017-12-05T23:56:05.753Z,98698.44
2017-12-05T23:58:33.501Z,98694.20
